Antwerp, Ohio
Current Conditions -  °F | °C
As of 9:35 PM on Thursday 20 Nov 2014 (Local Time) from KGWB Reporting Station
Clear Clear  
Wind Chill: 14°   Ceiling: Unl
Heat Index: 21°   Visibility: 10mi
Dew Point:   Wind: 6mph
Humidity: 54%   Direction: 270°W
Pressure: 30.15"   Gusts: NA
Location:  41.18°N, 84.74°W
Report Text: KGWB 210235Z AUTO 27005KT 10SM CLR M06/M14 A3015 RMK AO2
Loading
Personal Weather Stations






























Interactive Weather Map New forecast layout! Learn more

10-Day Weather Forecast

Advertisements
Track Severe Weather on mobile